AirNav   Air Wisconsin Up To $57,000 Bonus
 
 339 users online  

CL35 Warner Springs Gliderport
Warner Springs, California, USA

GOING TO WARNER SPRINGS?


FAA INFORMATION EFFECTIVE 18 JULY 2019

Location

FAA Identifier: CL35
Lat/Long: 33-17-04.2100N / 116-40-10.7650W
33-17.070167N / 116-40.179417W
33.2845028 / -116.6696569
(estimated)
Elevation: 2880 ft. / 878 m (estimated)
Variation: 13E (1985)
From city: 2 miles E of WARNER SPRINGS, CA
Time zone: UTC -7 (UTC -8 during Standard Time)
Zip code: 92086

Gliderport Operations

Gliderport use: Private use. Permission required prior to landing
Activation date: 10/1984
Control tower: no
ARTCC: LOS ANGELES CENTER
FSS: SAN DIEGO FLIGHT SERVICE STATION
Attendance: 0900-1700
Wind indicator: yes
Segmented circle: yes
Landing fee: yes

Gliderport Communications

UNICOM: 122.8
WX AWOS-3P at L08 (18 nm E): 126.575 (760-767-3308)
WX ASOS at RNM (19 nm SW): 132.025 (760-789-0736)

Nearby radio navigation aids

VOR radial/distance  VOR name  Freq  Var
JLIr319/9.6JULIAN VORTAC114.0015E
TRMr218/32.8THERMAL VORTAC116.2013E
PSPr186/37.1PALM SPRINGS VORTAC115.5013E
OCNr071/37.6OCEANSIDE VORTAC115.3015E
HDFr125/(39.2)HOMELAND VOR113.4014E

Gliderport Services

Runway Information

Runway 8/26

Dimensions: 3500 x 70 ft. / 1067 x 21 m
Surface: asphalt
RUNWAY 8  RUNWAY 26
Latitude: 33-17.060333N33-17.080000N
Longitude: 116-40.522667W116-39.836167W
Elevation: 2873.0 ft.2914.0 ft.
Traffic pattern: leftleft
Obstructions: none200 ft. hill, 5200 ft. from runway

Gliderport Ownership and Management from official FAA records

Ownership: Privately-owned
Owner: WARNER SPRINGS RANCH RESORT, LLC
31930 HWY 79
WARNER SPRINGS, CA 92086
Phone 760-782-4200
SKY SAILING 31930 HWY 79.
Manager: BRET WILLAT
SKY SAILING 31930 HWY 79
WARNER SPRINGS, CA 92086
Phone 760-782-0404
LEASEE.

Gliderport Operational Statistics

Aircraft based on the field: 80
Single engine airplanes: 10
Gliders airplanes: 70
    

Additional Remarks

FOR CD CTC LOS ANGELES ARTCC AT 661-575-2079.

Instrument Procedures

There are no published instrument procedures at CL35.

Some nearby airports with instrument procedures:

L08 - Borrego Valley Airport (18 nm E)
KRNM - Ramona Airport (19 nm SW)
F70 - French Valley Airport (29 nm NW)
L18 - Fallbrook Community Airpark (29 nm W)
KSEE - Gillespie Field Airport (31 nm SW)
 
Loc | Ops | Rwys | IFR | FBO | Links
Com | Nav | Svcs | Stats | Notes
Area around CL35 (Warner Springs Gliderport)
 
Road maps at: MapQuest Bing Google
 
Aerial photo
WARNING: Photo may not be current or correct
Aerial photo of CL35 (Warner Springs Gliderport)
Photo by Steve Lupinacci
Photo taken 27-May-2008

Do you have a better or more recent aerial photo of Warner Springs Gliderport that you would like to share? If so, please send us your photo.

 
Sectional chart

 
Airport distance calculator
Flying to Warner Springs Gliderport? Find the distance to fly.

From to CL35

Sunrise and sunset
Times for 23-Jul-2019
 Local
(UTC-7)
 Zulu
(UTC)
Morning civil twilight05:2712:27
Sunrise05:5412:54
Sunset19:5202:52
Evening civil twilight20:2003:20

Current date and time
Zulu (UTC)  23-Jul-2019 08:04:46
Local (UTC-7)  23-Jul-2019 01:04:46
 
METAR
KL08 
18nm E 
230755Z AUTO 00000KT 10SM CLR 29/18 A2989 RMK AO2
KRNM 
20nm SW 
230753Z AUTO 00000KT 10SM CLR 23/16 A3001 RMK AO2 SLP142 T02280161 403440167 $
KF70 
29nm NW 
230755Z AUTO 00000KT 10SM CLR 24/15 A3002 RMK AO1
KL18 
29nm W 
230755Z AUTO 00000KT 10SM CLR 22/17 A2999 RMK AO2
KSEE 
32nm SW 
230755Z AUTO 00000KT 10SM CLR 23/17 A2996 RMK AO2
KCRQ 
32nm W 
230753Z AUTO 27003KT 8SM CLR 22/18 A2997 RMK AO2 SLP144 T02170183 402500200
KTRM 
33nm NE 
230752Z AUTO 22004KT 10SM CLR 32/22 A2983 RMK AO2 SLP106 T03170222 404170278
KPSP 
33nm N 
230753Z AUTO 00000KT 10SM CLR 33/14 A2990 RMK AO2 SLP121 T03330139 404000294 $
KNFG 
33nm W 
230755Z AUTO 23003KT CLR 21/18 A2997 RMK AO2 SLP147 T02060183 402830183 $
KNKX 
34nm SW 
230755Z 00000KT 10SM OVC120 22/17 A2998 RMK AO2 SLP144 T02220172 403110206
TAF
KCRQ 
32nm W 
230520Z 2306/2406 VRB04KT P6SM SCT010 FM230800 VRB04KT 5SM HZ BKN007 FM231600 VRB04KT P6SM SCT010 BKN150 FM232000 25007KT P6SM SCT150 FM240200 VRB04KT P6SM SCT007
KTRM 
33nm NE 
230520Z 2306/2406 33007KT P6SM FEW150 FM230700 VRB04KT P6SM FEW150 FM232000 14009KT P6SM SCT150 FM240400 33006KT P6SM SCT100
KPSP 
33nm N 
230520Z 2306/2406 32007KT P6SM SCT100 FM230800 VRB04KT P6SM SCT100 FM231900 11007KT P6SM SCT150 FM240300 32007KT P6SM SCT100
KNFG 
33nm W 
2303/2403 VRB05KT 9999 FEW015 BKN100 QNH2991INS BECMG 2305/2307 VRB05KT 9999 BKN012 QNH2990INS BECMG 2316/2318 24009KT 9999 FEW015 BKN100 QNH2989INS T18/2312Z T29/2320Z
KNKX 
34nm SW 
2303/2403 VRB05KT 9999 SCT070 SCT170 QNH2992INS BECMG 2309/2311 VRB05KT 9999 BKN010 OVC120 QNH2994INS TEMPO 2309/2315 8000 BR OVC009 FM231630 27007KT 9999 SCT015 BKN120 QNH2996INS T19/2310Z T31/2322Z
NOTAMs
Click for the latest NOTAMs
NOTAMs are issued by the DoD/FAA and will open in a separate window not controlled by AirNav.

 

 
 

Would you like to see your business listed on this page?

 If your business provides an interesting product or service to pilots, flight crews, aircraft, or users of the Warner Springs Gliderport, you should consider listing it here.  To start the listing process, click on the button below
 
Add a business
 

Other Pages about Warner Springs Gliderport

www.agcsc.org/warner_springs_info.html
 
Update a link
 
Copyright © AirNav, LLC. All rights reserved. Privacy Policy  Contact